sensor_id;sensor_type;location;lat;lon;timestamp;temperature;humidity
2447;DHT22;26430;48.818;9.244;2023-01-23T00:01:16;1.00;99.90
2447;DHT22;26430;48.818;9.244;2023-01-23T00:03:43;1.00;99.90
2447;DHT22;26430;48.818;9.244;2023-01-23T00:06:14;1.00;99.90
2447;DHT22;26430;48.818;9.244;2023-01-23T00:08:41;0.90;99.90
2447;DHT22;26430;48.818;9.244;2023-01-23T00:11:10;0.90;99.90
2447;DHT22;26430;48.818;9.244;2023-01-23T00:13:36;1.00;99.90
2447;DHT22;26430;48.818;9.244;2023-01-23T00:16:06;1.10;99.90
2447;DHT22;26430;48.818;9.244;2023-01-23T00:18:32;1.20;99.90
2447;DHT22;26430;48.818;9.244;2023-01-23T00:21:01;1.10;99.90
2447;DHT22;26430;48.818;9.244;2023-01-23T00:23:27;1.10;99.90
2447;DHT22;26430;48.818;9.244;2023-01-23T00:25:53;1.10;99.90
2447;DHT22;26430;48.818;9.244;2023-01-23T00:28:18;1.20;99.90
2447;DHT22;26430;48.818;9.244;2023-01-23T00:30:44;1.20;99.90
2447;DHT22;26430;48.818;9.244;2023-01-23T00:33:10;1.10;99.90
2447;DHT22;26430;48.818;9.244;2023-01-23T00:35:35;1.20;99.90
2447;DHT22;26430;48.818;9.244;2023-01-23T00:38:01;1.20;99.90
2447;DHT22;26430;48.818;9.244;2023-01-23T00:40:26;1.20;99.90
2447;DHT22;26430;48.818;9.244;2023-01-23T00:42:52;1.40;99.90
2447;DHT22;26430;48.818;9.244;2023-01-23T00:45:18;1.50;99.90
2447;DHT22;26430;48.818;9.244;2023-01-23T00:47:44;1.60;99.90
2447;DHT22;26430;48.818;9.244;2023-01-23T00:50:10;1.70;99.90
2447;DHT22;26430;48.818;9.244;2023-01-23T00:52:35;1.60;99.90
2447;DHT22;26430;48.818;9.244;2023-01-23T00:55:02;1.50;99.90
2447;DHT22;26430;48.818;9.244;2023-01-23T00:57:27;1.30;99.90
2447;DHT22;26430;48.818;9.244;2023-01-23T00:59:53;1.30;99.90
2447;DHT22;26430;48.818;9.244;2023-01-23T01:02:18;1.20;99.90
2447;DHT22;26430;48.818;9.244;2023-01-23T01:04:44;1.10;99.90
2447;DHT22;26430;48.818;9.244;2023-01-23T01:07:10;1.00;99.90
2447;DHT22;26430;48.818;9.244;2023-01-23T01:09:36;1.10;99.90
2447;DHT22;26430;48.818;9.244;2023-01-23T01:12:02;1.10;99.90
2447;DHT22;26430;48.818;9.244;2023-01-23T01:14:27;1.00;99.90
2447;DHT22;26430;48.818;9.244;2023-01-23T01:16:53;1.00;99.90
2447;DHT22;26430;48.818;9.244;2023-01-23T01:19:18;1.00;99.90
2447;DHT22;26430;48.818;9.244;2023-01-23T01:21:44;1.00;99.90
2447;DHT22;26430;48.818;9.244;2023-01-23T01:24:10;1.00;99.90
2447;DHT22;26430;48.818;9.244;2023-01-23T01:26:36;1.00;99.90
2447;DHT22;26430;48.818;9.244;2023-01-23T01:29:02;1.10;99.90
2447;DHT22;26430;48.818;9.244;2023-01-23T01:31:28;1.00;99.90
2447;DHT22;26430;48.818;9.244;2023-01-23T01:33:54;1.00;99.90
2447;DHT22;26430;48.818;9.244;2023-01-23T01:36:22;1.00;99.90
2447;DHT22;26430;48.818;9.244;2023-01-23T01:38:48;1.00;99.90
2447;DHT22;26430;48.818;9.244;2023-01-23T01:41:15;1.10;99.90
2447;DHT22;26430;48.818;9.244;2023-01-23T01:43:42;1.10;99.90
2447;DHT22;26430;48.818;9.244;2023-01-23T01:53:49;1.10;99.90
2447;DHT22;26430;48.818;9.244;2023-01-23T01:56:17;1.10;99.90
2447;DHT22;26430;48.818;9.244;2023-01-23T01:58:45;1.10;99.90
2447;DHT22;26430;48.818;9.244;2023-01-23T02:01:12;1.10;99.90
2447;DHT22;26430;48.818;9.244;2023-01-23T02:03:38;1.10;99.90
2447;DHT22;26430;48.818;9.244;2023-01-23T02:06:04;1.10;99.90
2447;DHT22;26430;48.818;9.244;2023-01-23T02:08:47;1.10;99.90
2447;DHT22;26430;48.818;9.244;2023-01-23T02:11:15;1.10;99.90
2447;DHT22;26430;48.818;9.244;2023-01-23T02:13:43;1.20;99.90
2447;DHT22;26430;48.818;9.244;2023-01-23T02:16:19;1.10;99.90
2447;DHT22;26430;48.818;9.244;2023-01-23T02:18:51;1.10;99.90
2447;DHT22;26430;48.818;9.244;2023-01-23T02:21:22;1.10;99.90
2447;DHT22;26430;48.818;9.244;2023-01-23T02:24:24;1.10;99.90
2447;DHT22;26430;48.818;9.244;2023-01-23T02:26:52;1.00;99.90
2447;DHT22;26430;48.818;9.244;2023-01-23T02:29:18;1.00;99.90
2447;DHT22;26430;48.818;9.244;2023-01-23T02:31:45;1.00;99.90
2447;DHT22;26430;48.818;9.244;2023-01-23T02:34:12;1.10;99.90
2447;DHT22;26430;48.818;9.244;2023-01-23T02:36:40;1.20;99.90
2447;DHT22;26430;48.818;9.244;2023-01-23T02:39:14;1.20;99.90
2447;DHT22;26430;48.818;9.244;2023-01-23T02:41:45;1.40;99.90
2447;DHT22;26430;48.818;9.244;2023-01-23T02:44:16;1.30;99.90
2447;DHT22;26430;48.818;9.244;2023-01-23T02:46:43;1.20;99.90
2447;DHT22;26430;48.818;9.244;2023-01-23T02:49:09;1.20;99.90
2447;DHT22;26430;48.818;9.244;2023-01-23T02:51:34;1.20;99.90
2447;DHT22;26430;48.818;9.244;2023-01-23T02:54:00;1.20;99.90
2447;DHT22;26430;48.818;9.244;2023-01-23T02:56:27;1.20;99.90
2447;DHT22;26430;48.818;9.244;2023-01-23T02:58:52;1.10;99.90
2447;DHT22;26430;48.818;9.244;2023-01-23T03:01:36;1.10;99.90
2447;DHT22;26430;48.818;9.244;2023-01-23T03:04:03;1.00;99.90
2447;DHT22;26430;48.818;9.244;2023-01-23T03:06:32;1.00;99.90
2447;DHT22;26430;48.818;9.244;2023-01-23T03:09:08;1.00;99.90
2447;DHT22;26430;48.818;9.244;2023-01-23T03:11:36;1.00;99.90
2447;DHT22;26430;48.818;9.244;2023-01-23T03:14:02;1.00;99.90
2447;DHT22;26430;48.818;9.244;2023-01-23T03:16:27;1.00;99.90
2447;DHT22;26430;48.818;9.244;2023-01-23T03:18:53;1.10;99.90
2447;DHT22;26430;48.818;9.244;2023-01-23T03:21:19;1.10;99.90
2447;DHT22;26430;48.818;9.244;2023-01-23T03:23:44;1.20;99.90
2447;DHT22;26430;48.818;9.244;2023-01-23T03:26:12;1.20;99.90
2447;DHT22;26430;48.818;9.244;2023-01-23T03:28:38;1.20;99.90
2447;DHT22;26430;48.818;9.244;2023-01-23T03:31:22;1.30;99.90
2447;DHT22;26430;48.818;9.244;2023-01-23T03:33:48;1.30;99.90
2447;DHT22;26430;48.818;9.244;2023-01-23T03:36:13;1.50;99.90
2447;DHT22;26430;48.818;9.244;2023-01-23T03:38:39;1.40;99.90
2447;DHT22;26430;48.818;9.244;2023-01-23T03:41:25;1.60;99.90
2447;DHT22;26430;48.818;9.244;2023-01-23T03:43:50;1.80;99.90
2447;DHT22;26430;48.818;9.244;2023-01-23T03:46:16;1.70;99.90
2447;DHT22;26430;48.818;9.244;2023-01-23T03:48:42;1.70;99.90
2447;DHT22;26430;48.818;9.244;2023-01-23T03:51:07;1.70;99.90
2447;DHT22;26430;48.818;9.244;2023-01-23T03:53:33;1.60;99.90
2447;DHT22;26430;48.818;9.244;2023-01-23T03:55:59;1.60;99.90
2447;DHT22;26430;48.818;9.244;2023-01-23T03:58:25;1.40;99.90
2447;DHT22;26430;48.818;9.244;2023-01-23T04:00:50;1.30;99.90
2447;DHT22;26430;48.818;9.244;2023-01-23T04:03:16;1.30;99.90
2447;DHT22;26430;48.818;9.244;2023-01-23T04:05:41;1.30;99.90
2447;DHT22;26430;48.818;9.244;2023-01-23T04:08:07;1.20;99.90
2447;DHT22;26430;48.818;9.244;2023-01-23T04:10:32;1.20;99.90
2447;DHT22;26430;48.818;9.244;2023-01-23T04:12:58;1.20;99.90
2447;DHT22;26430;48.818;9.244;2023-01-23T04:15:23;1.30;99.90
2447;DHT22;26430;48.818;9.244;2023-01-23T04:17:49;1.20;99.90
2447;DHT22;26430;48.818;9.244;2023-01-23T04:20:15;1.20;99.90
2447;DHT22;26430;48.818;9.244;2023-01-23T04:22:40;1.20;99.90
2447;DHT22;26430;48.818;9.244;2023-01-23T04:25:06;1.30;99.90
2447;DHT22;26430;48.818;9.244;2023-01-23T04:27:32;1.30;99.90
2447;DHT22;26430;48.818;9.244;2023-01-23T04:29:58;1.30;99.90
2447;DHT22;26430;48.818;9.244;2023-01-23T04:32:24;1.30;99.90
2447;DHT22;26430;48.818;9.244;2023-01-23T04:34:50;1.30;99.90
2447;DHT22;26430;48.818;9.244;2023-01-23T04:37:16;1.30;99.90
2447;DHT22;26430;48.818;9.244;2023-01-23T04:39:42;1.30;99.90
2447;DHT22;26430;48.818;9.244;2023-01-23T04:42:08;1.30;99.90
2447;DHT22;26430;48.818;9.244;2023-01-23T04:44:34;1.30;99.90
2447;DHT22;26430;48.818;9.244;2023-01-23T04:47:00;1.30;99.90
2447;DHT22;26430;48.818;9.244;2023-01-23T04:49:26;1.30;99.90
2447;DHT22;26430;48.818;9.244;2023-01-23T04:51:52;1.30;99.90
2447;DHT22;26430;48.818;9.244;2023-01-23T04:54:18;1.20;99.90
2447;DHT22;26430;48.818;9.244;2023-01-23T04:56:44;1.20;99.90
2447;DHT22;26430;48.818;9.244;2023-01-23T04:59:11;1.30;99.90
2447;DHT22;26430;48.818;9.244;2023-01-23T05:01:37;1.30;99.90
2447;DHT22;26430;48.818;9.244;2023-01-23T05:04:03;1.30;99.90
2447;DHT22;26430;48.818;9.244;2023-01-23T05:06:29;1.40;99.90
2447;DHT22;26430;48.818;9.244;2023-01-23T05:08:55;1.40;99.90
2447;DHT22;26430;48.818;9.244;2023-01-23T05:11:21;1.30;99.90
2447;DHT22;26430;48.818;9.244;2023-01-23T05:13:46;1.40;99.90
2447;DHT22;26430;48.818;9.244;2023-01-23T05:16:12;1.40;99.90
2447;DHT22;26430;48.818;9.244;2023-01-23T05:18:38;1.50;99.90
2447;DHT22;26430;48.818;9.244;2023-01-23T05:21:04;1.40;99.90
2447;DHT22;26430;48.818;9.244;2023-01-23T05:23:29;1.50;99.90
2447;DHT22;26430;48.818;9.244;2023-01-23T05:25:55;1.70;99.90
2447;DHT22;26430;48.818;9.244;2023-01-23T05:28:21;1.80;99.90
2447;DHT22;26430;48.818;9.244;2023-01-23T05:30:46;1.80;99.90
2447;DHT22;26430;48.818;9.244;2023-01-23T05:33:12;1.90;99.90
2447;DHT22;26430;48.818;9.244;2023-01-23T05:35:38;2.10;99.90
2447;DHT22;26430;48.818;9.244;2023-01-23T05:38:04;2.10;99.90
2447;DHT22;26430;48.818;9.244;2023-01-23T05:40:29;1.90;99.90
2447;DHT22;26430;48.818;9.244;2023-01-23T05:42:55;1.90;99.90
2447;DHT22;26430;48.818;9.244;2023-01-23T05:45:21;1.80;99.90
2447;DHT22;26430;48.818;9.244;2023-01-23T05:47:46;1.60;99.90
2447;DHT22;26430;48.818;9.244;2023-01-23T05:50:17;1.60;99.90
2447;DHT22;26430;48.818;9.244;2023-01-23T05:52:43;1.50;99.90
2447;DHT22;26430;48.818;9.244;2023-01-23T05:55:09;1.70;99.90
2447;DHT22;26430;48.818;9.244;2023-01-23T05:57:35;1.70;99.90
2447;DHT22;26430;48.818;9.244;2023-01-23T06:00:01;1.70;99.90
2447;DHT22;26430;48.818;9.244;2023-01-23T06:02:27;1.60;99.90
2447;DHT22;26430;48.818;9.244;2023-01-23T06:04:52;1.60;99.90
2447;DHT22;26430;48.818;9.244;2023-01-23T06:07:19;1.60;99.90
2447;DHT22;26430;48.818;9.244;2023-01-23T06:09:45;1.50;99.90
2447;DHT22;26430;48.818;9.244;2023-01-23T06:12:11;1.50;99.90
2447;DHT22;26430;48.818;9.244;2023-01-23T06:14:37;1.60;99.90
2447;DHT22;26430;48.818;9.244;2023-01-23T06:17:02;1.60;99.90
2447;DHT22;26430;48.818;9.244;2023-01-23T06:19:28;1.70;99.90
2447;DHT22;26430;48.818;9.244;2023-01-23T06:21:54;1.80;99.90
2447;DHT22;26430;48.818;9.244;2023-01-23T06:24:19;1.80;99.90
2447;DHT22;26430;48.818;9.244;2023-01-23T06:26:45;1.80;99.90
2447;DHT22;26430;48.818;9.244;2023-01-23T06:29:11;1.70;99.90
2447;DHT22;26430;48.818;9.244;2023-01-23T06:31:36;1.70;99.90
2447;DHT22;26430;48.818;9.244;2023-01-23T06:34:02;1.70;99.90
2447;DHT22;26430;48.818;9.244;2023-01-23T06:36:28;1.70;99.90
2447;DHT22;26430;48.818;9.244;2023-01-23T06:38:53;1.70;99.90
2447;DHT22;26430;48.818;9.244;2023-01-23T06:41:19;1.80;99.90
2447;DHT22;26430;48.818;9.244;2023-01-23T06:43:45;1.70;99.90
2447;DHT22;26430;48.818;9.244;2023-01-23T06:46:11;1.60;99.90
2447;DHT22;26430;48.818;9.244;2023-01-23T06:48:37;1.50;99.90
2447;DHT22;26430;48.818;9.244;2023-01-23T06:51:03;1.50;99.90
2447;DHT22;26430;48.818;9.244;2023-01-23T06:53:29;1.50;99.90
2447;DHT22;26430;48.818;9.244;2023-01-23T06:56:03;1.50;99.90
2447;DHT22;26430;48.818;9.244;2023-01-23T06:58:30;1.40;99.90
2447;DHT22;26430;48.818;9.244;2023-01-23T07:00:56;1.50;99.90
2447;DHT22;26430;48.818;9.244;2023-01-23T07:03:21;1.40;99.90
2447;DHT22;26430;48.818;9.244;2023-01-23T07:05:47;1.40;99.90
2447;DHT22;26430;48.818;9.244;2023-01-23T07:08:13;1.40;99.90
2447;DHT22;26430;48.818;9.244;2023-01-23T07:10:38;1.50;99.90
2447;DHT22;26430;48.818;9.244;2023-01-23T07:13:05;1.50;99.90
2447;DHT22;26430;48.818;9.244;2023-01-23T07:15:31;1.40;99.90
2447;DHT22;26430;48.818;9.244;2023-01-23T07:17:58;1.50;99.90
2447;DHT22;26430;48.818;9.244;2023-01-23T07:20:24;1.50;99.90
2447;DHT22;26430;48.818;9.244;2023-01-23T07:22:52;1.50;99.90
2447;DHT22;26430;48.818;9.244;2023-01-23T07:25:18;1.50;99.90
2447;DHT22;26430;48.818;9.244;2023-01-23T07:27:44;1.60;99.90
2447;DHT22;26430;48.818;9.244;2023-01-23T07:30:10;1.60;99.90
2447;DHT22;26430;48.818;9.244;2023-01-23T07:32:35;1.60;99.90
2447;DHT22;26430;48.818;9.244;2023-01-23T07:35:01;1.70;99.90
2447;DHT22;26430;48.818;9.244;2023-01-23T07:37:26;1.60;99.90
2447;DHT22;26430;48.818;9.244;2023-01-23T07:39:52;1.80;99.90
2447;DHT22;26430;48.818;9.244;2023-01-23T07:42:18;1.90;99.90
2447;DHT22;26430;48.818;9.244;2023-01-23T07:44:43;1.80;99.90
2447;DHT22;26430;48.818;9.244;2023-01-23T07:47:09;1.80;99.90
2447;DHT22;26430;48.818;9.244;2023-01-23T07:49:34;1.80;99.90
2447;DHT22;26430;48.818;9.244;2023-01-23T07:52:00;1.70;99.90
2447;DHT22;26430;48.818;9.244;2023-01-23T07:54:25;1.80;99.90
2447;DHT22;26430;48.818;9.244;2023-01-23T07:56:51;1.80;99.90
2447;DHT22;26430;48.818;9.244;2023-01-23T07:59:17;1.90;99.90
2447;DHT22;26430;48.818;9.244;2023-01-23T08:01:42;1.80;99.90
2447;DHT22;26430;48.818;9.244;2023-01-23T08:04:08;1.80;99.90
2447;DHT22;26430;48.818;9.244;2023-01-23T08:06:34;1.80;99.90
2447;DHT22;26430;48.818;9.244;2023-01-23T08:09:01;1.90;99.90
2447;DHT22;26430;48.818;9.244;2023-01-23T08:11:26;2.00;99.90
2447;DHT22;26430;48.818;9.244;2023-01-23T08:13:52;2.00;99.90
2447;DHT22;26430;48.818;9.244;2023-01-23T08:16:17;2.00;99.90
2447;DHT22;26430;48.818;9.244;2023-01-23T08:18:43;2.00;99.90
2447;DHT22;26430;48.818;9.244;2023-01-23T08:21:09;2.00;99.90
2447;DHT22;26430;48.818;9.244;2023-01-23T08:23:34;2.00;99.90
2447;DHT22;26430;48.818;9.244;2023-01-23T08:26:03;2.00;99.90
2447;DHT22;26430;48.818;9.244;2023-01-23T08:28:29;2.00;99.90
2447;DHT22;26430;48.818;9.244;2023-01-23T08:30:58;2.00;99.90
2447;DHT22;26430;48.818;9.244;2023-01-23T08:33:24;1.90;99.90
2447;DHT22;26430;48.818;9.244;2023-01-23T08:35:55;1.90;99.90
2447;DHT22;26430;48.818;9.244;2023-01-23T08:38:21;1.90;99.90
2447;DHT22;26430;48.818;9.244;2023-01-23T08:40:48;1.80;99.90
2447;DHT22;26430;48.818;9.244;2023-01-23T08:43:16;1.80;99.90
2447;DHT22;26430;48.818;9.244;2023-01-23T08:45:52;1.80;99.90
2447;DHT22;26430;48.818;9.244;2023-01-23T08:48:20;1.80;99.90
2447;DHT22;26430;48.818;9.244;2023-01-23T08:50:45;1.70;99.90
2447;DHT22;26430;48.818;9.244;2023-01-23T08:53:12;1.60;99.90
2447;DHT22;26430;48.818;9.244;2023-01-23T08:55:38;1.60;99.90
2447;DHT22;26430;48.818;9.244;2023-01-23T08:58:08;1.60;99.90
2447;DHT22;26430;48.818;9.244;2023-01-23T09:00:34;1.70;99.90
2447;DHT22;26430;48.818;9.244;2023-01-23T09:03:03;1.70;99.90
2447;DHT22;26430;48.818;9.244;2023-01-23T09:05:29;1.60;99.90
2447;DHT22;26430;48.818;9.244;2023-01-23T09:07:55;1.70;99.90
2447;DHT22;26430;48.818;9.244;2023-01-23T09:10:21;1.90;99.90
2447;DHT22;26430;48.818;9.244;2023-01-23T09:12:50;1.90;99.90
2447;DHT22;26430;48.818;9.244;2023-01-23T09:15:15;2.00;99.90
2447;DHT22;26430;48.818;9.244;2023-01-23T09:17:41;2.10;99.90
2447;DHT22;26430;48.818;9.244;2023-01-23T09:20:08;2.10;99.90
2447;DHT22;26430;48.818;9.244;2023-01-23T09:22:33;2.20;99.90
2447;DHT22;26430;48.818;9.244;2023-01-23T09:24:59;2.00;99.90
2447;DHT22;26430;48.818;9.244;2023-01-23T09:27:25;2.00;99.90
2447;DHT22;26430;48.818;9.244;2023-01-23T09:29:50;2.00;99.90
2447;DHT22;26430;48.818;9.244;2023-01-23T09:32:16;1.90;99.90
2447;DHT22;26430;48.818;9.244;2023-01-23T09:34:42;2.00;99.90
2447;DHT22;26430;48.818;9.244;2023-01-23T09:37:08;2.00;99.90
2447;DHT22;26430;48.818;9.244;2023-01-23T09:39:34;1.90;99.90
2447;DHT22;26430;48.818;9.244;2023-01-23T09:42:03;1.90;99.90
2447;DHT22;26430;48.818;9.244;2023-01-23T09:44:43;1.80;99.90
2447;DHT22;26430;48.818;9.244;2023-01-23T09:47:16;1.90;99.90
2447;DHT22;26430;48.818;9.244;2023-01-23T09:49:52;2.00;99.90
2447;DHT22;26430;48.818;9.244;2023-01-23T09:52:25;2.00;99.90
2447;DHT22;26430;48.818;9.244;2023-01-23T09:57:33;1.90;99.90
2447;DHT22;26430;48.818;9.244;2023-01-23T10:00:11;1.90;99.90
2447;DHT22;26430;48.818;9.244;2023-01-23T10:02:42;2.00;99.90
2447;DHT22;26430;48.818;9.244;2023-01-23T10:05:15;2.10;99.90
2447;DHT22;26430;48.818;9.244;2023-01-23T10:10:46;2.50;99.90
2447;DHT22;26430;48.818;9.244;2023-01-23T10:13:17;2.60;99.90
2447;DHT22;26430;48.818;9.244;2023-01-23T10:18:32;2.60;99.90
2447;DHT22;26430;48.818;9.244;2023-01-23T10:26:18;2.60;99.90
2447;DHT22;26430;48.818;9.244;2023-01-23T10:28:45;2.60;99.90
2447;DHT22;26430;48.818;9.244;2023-01-23T10:39:30;3.10;99.90
2447;DHT22;26430;48.818;9.244;2023-01-23T10:41:57;3.10;99.90
2447;DHT22;26430;48.818;9.244;2023-01-23T10:44:23;3.10;99.90
2447;DHT22;26430;48.818;9.244;2023-01-23T10:47:01;3.00;99.90
2447;DHT22;26430;48.818;9.244;2023-01-23T10:49:32;2.90;99.90
2447;DHT22;26430;48.818;9.244;2023-01-23T10:51:59;2.70;99.90
2447;DHT22;26430;48.818;9.244;2023-01-23T10:54:28;2.80;99.90
2447;DHT22;26430;48.818;9.244;2023-01-23T10:57:00;3.00;99.90
2447;DHT22;26430;48.818;9.244;2023-01-23T10:59:58;3.00;99.90
2447;DHT22;26430;48.818;9.244;2023-01-23T11:02:35;2.90;99.90
2447;DHT22;26430;48.818;9.244;2023-01-23T11:05:29;2.80;99.90
2447;DHT22;26430;48.818;9.244;2023-01-23T11:07:53;2.80;99.90
2447;DHT22;26430;48.818;9.244;2023-01-23T11:10:22;2.80;99.90
2447;DHT22;26430;48.818;9.244;2023-01-23T11:12:50;2.70;99.90
2447;DHT22;26430;48.818;9.244;2023-01-23T11:17:47;2.80;99.90
2447;DHT22;26430;48.818;9.244;2023-01-23T11:20:34;3.00;99.90
2447;DHT22;26430;48.818;9.244;2023-01-23T11:23:16;3.00;99.90
2447;DHT22;26430;48.818;9.244;2023-01-23T11:25:46;3.20;99.90
2447;DHT22;26430;48.818;9.244;2023-01-23T11:28:33;3.10;99.90
2447;DHT22;26430;48.818;9.244;2023-01-23T11:39:33;3.10;99.90
2447;DHT22;26430;48.818;9.244;2023-01-23T11:42:02;3.00;99.90
2447;DHT22;26430;48.818;9.244;2023-01-23T11:44:29;2.90;99.90
2447;DHT22;26430;48.818;9.244;2023-01-23T12:03:35;2.90;99.90
2447;DHT22;26430;48.818;9.244;2023-01-23T12:06:17;3.00;99.90
2447;DHT22;26430;48.818;9.244;2023-01-23T12:25:33;2.90;99.90
2447;DHT22;26430;48.818;9.244;2023-01-23T12:28:46;2.90;99.90
2447;DHT22;26430;48.818;9.244;2023-01-23T12:34:07;3.30;99.90
2447;DHT22;26430;48.818;9.244;2023-01-23T12:37:01;3.30;99.90
2447;DHT22;26430;48.818;9.244;2023-01-23T12:42:12;3.40;99.90
2447;DHT22;26430;48.818;9.244;2023-01-23T12:44:56;3.50;99.90
2447;DHT22;26430;48.818;9.244;2023-01-23T12:47:27;3.40;99.90
2447;DHT22;26430;48.818;9.244;2023-01-23T12:50:10;3.30;99.90
2447;DHT22;26430;48.818;9.244;2023-01-23T12:52:45;3.40;99.90
2447;DHT22;26430;48.818;9.244;2023-01-23T12:55:16;3.40;99.90
2447;DHT22;26430;48.818;9.244;2023-01-23T12:57:44;3.30;99.90
2447;DHT22;26430;48.818;9.244;2023-01-23T13:11:32;3.20;99.90
2447;DHT22;26430;48.818;9.244;2023-01-23T13:16:46;3.20;99.90
2447;DHT22;26430;48.818;9.244;2023-01-23T13:19:26;3.20;99.90
2447;DHT22;26430;48.818;9.244;2023-01-23T13:22:20;3.20;99.90
2447;DHT22;26430;48.818;9.244;2023-01-23T13:24:48;3.30;99.90
2447;DHT22;26430;48.818;9.244;2023-01-23T13:32:58;3.40;99.90
2447;DHT22;26430;48.818;9.244;2023-01-23T13:46:37;3.50;99.90
2447;DHT22;26430;48.818;9.244;2023-01-23T13:52:02;3.50;99.90
2447;DHT22;26430;48.818;9.244;2023-01-23T13:54:52;3.60;99.90
2447;DHT22;26430;48.818;9.244;2023-01-23T13:57:36;3.60;99.90
2447;DHT22;26430;48.818;9.244;2023-01-23T14:00:03;3.60;99.90
2447;DHT22;26430;48.818;9.244;2023-01-23T14:02:34;3.60;99.90
2447;DHT22;26430;48.818;9.244;2023-01-23T14:05:31;3.60;99.90
2447;DHT22;26430;48.818;9.244;2023-01-23T14:08:02;3.60;99.90
2447;DHT22;26430;48.818;9.244;2023-01-23T14:10:34;3.60;99.90
2447;DHT22;26430;48.818;9.244;2023-01-23T14:13:08;3.60;99.90
2447;DHT22;26430;48.818;9.244;2023-01-23T14:15:36;3.70;99.90
2447;DHT22;26430;48.818;9.244;2023-01-23T14:18:45;3.70;99.90
2447;DHT22;26430;48.818;9.244;2023-01-23T14:21:23;3.70;99.90
2447;DHT22;26430;48.818;9.244;2023-01-23T14:23:51;3.70;99.90
2447;DHT22;26430;48.818;9.244;2023-01-23T14:26:22;3.70;99.90
2447;DHT22;26430;48.818;9.244;2023-01-23T14:28:53;3.60;99.90
2447;DHT22;26430;48.818;9.244;2023-01-23T14:31:23;3.50;99.90
2447;DHT22;26430;48.818;9.244;2023-01-23T14:33:49;3.50;99.90
2447;DHT22;26430;48.818;9.244;2023-01-23T14:36:17;3.40;99.90
2447;DHT22;26430;48.818;9.244;2023-01-23T14:38:44;3.40;99.90
2447;DHT22;26430;48.818;9.244;2023-01-23T14:41:11;3.40;99.90
2447;DHT22;26430;48.818;9.244;2023-01-23T14:43:37;3.40;99.90
2447;DHT22;26430;48.818;9.244;2023-01-23T14:46:17;3.40;99.90
2447;DHT22;26430;48.818;9.244;2023-01-23T14:48:49;3.40;99.90
2447;DHT22;26430;48.818;9.244;2023-01-23T14:51:22;3.40;99.90
2447;DHT22;26430;48.818;9.244;2023-01-23T14:53:57;3.40;99.90
2447;DHT22;26430;48.818;9.244;2023-01-23T14:56:41;3.40;99.90
2447;DHT22;26430;48.818;9.244;2023-01-23T14:59:18;3.40;99.90
2447;DHT22;26430;48.818;9.244;2023-01-23T15:01:55;3.30;99.90
2447;DHT22;26430;48.818;9.244;2023-01-23T15:04:23;3.30;99.90
2447;DHT22;26430;48.818;9.244;2023-01-23T15:06:58;3.30;99.90
2447;DHT22;26430;48.818;9.244;2023-01-23T15:09:31;3.20;99.90
2447;DHT22;26430;48.818;9.244;2023-01-23T15:12:14;3.10;99.90
2447;DHT22;26430;48.818;9.244;2023-01-23T15:14:40;3.10;99.90
2447;DHT22;26430;48.818;9.244;2023-01-23T15:17:13;3.10;99.90
2447;DHT22;26430;48.818;9.244;2023-01-23T15:19:41;3.10;99.90
2447;DHT22;26430;48.818;9.244;2023-01-23T15:22:19;3.10;99.90
2447;DHT22;26430;48.818;9.244;2023-01-23T15:24:45;3.00;99.90
2447;DHT22;26430;48.818;9.244;2023-01-23T15:27:32;3.00;99.90
2447;DHT22;26430;48.818;9.244;2023-01-23T15:30:30;3.10;99.90
2447;DHT22;26430;48.818;9.244;2023-01-23T15:33:02;3.10;99.90
2447;DHT22;26430;48.818;9.244;2023-01-23T15:35:33;3.10;99.90
2447;DHT22;26430;48.818;9.244;2023-01-23T15:37:59;3.10;99.90
2447;DHT22;26430;48.818;9.244;2023-01-23T15:40:30;3.00;99.90
2447;DHT22;26430;48.818;9.244;2023-01-23T15:43:04;3.10;99.90
2447;DHT22;26430;48.818;9.244;2023-01-23T15:45:32;3.10;99.90
2447;DHT22;26430;48.818;9.244;2023-01-23T15:47:58;3.00;99.90
2447;DHT22;26430;48.818;9.244;2023-01-23T15:50:24;3.00;99.90
2447;DHT22;26430;48.818;9.244;2023-01-23T15:52:52;3.00;99.90
2447;DHT22;26430;48.818;9.244;2023-01-23T15:55:19;2.90;99.90
2447;DHT22;26430;48.818;9.244;2023-01-23T15:57:45;3.00;99.90
2447;DHT22;26430;48.818;9.244;2023-01-23T16:00:15;2.90;99.90
2447;DHT22;26430;48.818;9.244;2023-01-23T16:02:42;3.00;99.90
2447;DHT22;26430;48.818;9.244;2023-01-23T16:05:08;2.90;99.90
2447;DHT22;26430;48.818;9.244;2023-01-23T16:07:38;2.90;99.90
2447;DHT22;26430;48.818;9.244;2023-01-23T16:10:21;2.90;99.90
2447;DHT22;26430;48.818;9.244;2023-01-23T16:12:48;2.90;99.90
2447;DHT22;26430;48.818;9.244;2023-01-23T16:15:19;2.90;99.90
2447;DHT22;26430;48.818;9.244;2023-01-23T16:17:46;2.90;99.90
2447;DHT22;26430;48.818;9.244;2023-01-23T16:20:13;2.90;99.90
2447;DHT22;26430;48.818;9.244;2023-01-23T16:22:40;2.80;99.90
2447;DHT22;26430;48.818;9.244;2023-01-23T16:25:12;2.80;99.90
2447;DHT22;26430;48.818;9.244;2023-01-23T16:27:39;2.90;99.90
2447;DHT22;26430;48.818;9.244;2023-01-23T16:30:05;2.90;99.90
2447;DHT22;26430;48.818;9.244;2023-01-23T16:32:31;2.90;99.90
2447;DHT22;26430;48.818;9.244;2023-01-23T16:34:56;2.90;99.90
2447;DHT22;26430;48.818;9.244;2023-01-23T16:37:23;2.90;99.90
2447;DHT22;26430;48.818;9.244;2023-01-23T16:39:48;2.80;99.90
2447;DHT22;26430;48.818;9.244;2023-01-23T16:42:21;2.80;99.90
2447;DHT22;26430;48.818;9.244;2023-01-23T16:44:47;2.80;99.90
2447;DHT22;26430;48.818;9.244;2023-01-23T16:47:13;2.80;99.90
2447;DHT22;26430;48.818;9.244;2023-01-23T16:49:38;2.80;99.90
2447;DHT22;26430;48.818;9.244;2023-01-23T16:52:04;2.80;99.90
2447;DHT22;26430;48.818;9.244;2023-01-23T16:54:30;2.90;99.90
2447;DHT22;26430;48.818;9.244;2023-01-23T16:56:56;3.00;99.90
2447;DHT22;26430;48.818;9.244;2023-01-23T16:59:35;3.00;99.90
2447;DHT22;26430;48.818;9.244;2023-01-23T17:02:25;3.00;99.90
2447;DHT22;26430;48.818;9.244;2023-01-23T17:04:51;2.90;99.90
2447;DHT22;26430;48.818;9.244;2023-01-23T17:07:18;3.10;99.90
2447;DHT22;26430;48.818;9.244;2023-01-23T17:09:44;3.00;99.90
2447;DHT22;26430;48.818;9.244;2023-01-23T17:12:24;3.00;99.90
2447;DHT22;26430;48.818;9.244;2023-01-23T17:14:52;3.00;99.90
2447;DHT22;26430;48.818;9.244;2023-01-23T17:17:28;2.80;99.90
2447;DHT22;26430;48.818;9.244;2023-01-23T17:19:56;2.80;99.90
2447;DHT22;26430;48.818;9.244;2023-01-23T17:22:27;2.80;99.90
2447;DHT22;26430;48.818;9.244;2023-01-23T17:24:55;2.90;99.90
2447;DHT22;26430;48.818;9.244;2023-01-23T17:27:20;3.00;99.90
2447;DHT22;26430;48.818;9.244;2023-01-23T17:29:46;3.00;99.90
2447;DHT22;26430;48.818;9.244;2023-01-23T17:32:34;3.10;99.90
2447;DHT22;26430;48.818;9.244;2023-01-23T17:35:02;3.00;99.90
2447;DHT22;26430;48.818;9.244;2023-01-23T17:37:28;3.10;99.90
2447;DHT22;26430;48.818;9.244;2023-01-23T17:39:54;3.00;99.90
2447;DHT22;26430;48.818;9.244;2023-01-23T17:42:20;2.90;99.90
2447;DHT22;26430;48.818;9.244;2023-01-23T17:44:47;2.80;99.90
2447;DHT22;26430;48.818;9.244;2023-01-23T17:47:13;2.80;99.90
2447;DHT22;26430;48.818;9.244;2023-01-23T17:49:41;2.80;99.90
2447;DHT22;26430;48.818;9.244;2023-01-23T17:52:10;2.80;99.90
2447;DHT22;26430;48.818;9.244;2023-01-23T17:54:35;2.90;99.90
2447;DHT22;26430;48.818;9.244;2023-01-23T17:57:02;2.80;99.90
2447;DHT22;26430;48.818;9.244;2023-01-23T17:59:27;2.70;99.90
2447;DHT22;26430;48.818;9.244;2023-01-23T18:01:53;2.60;99.90
2447;DHT22;26430;48.818;9.244;2023-01-23T18:04:20;2.60;99.90
2447;DHT22;26430;48.818;9.244;2023-01-23T18:06:47;2.50;99.90